»·PEaware :: N617LY KSNA-KMYF

N617LY :: KSNA-KMYF

FLIGHT INFORMATION

Flight Status: Arrived
Operator: Privately registered:
United States
More flights under this callsign
Pilot: John L. (29598)
Aircraft: CIRRUS SR-20
(SR20)
More flights by this aircraft type
Origin: KSNA John Wayne-Orange Co
United States
Destination: KMYF Montgomery
United States
More flights between these airports :: More routes between these airports
Route: V23 MZB
File this flight plan on PilotEdge
Remarks: TEC route CSTP31
Altitude:
(Current/Filed)
5,000ft
Speed:
(Current/Filed)
140kts
Departed: 30-Nov-20 09:02 PM
Arrived: 30-Nov-20 09:44 PM
Distance/Time
Traveled:
63nm/0:42
Distance/Time
To Go:
Arrived

Flight Plot

Page will automatically refresh every two minutes.


Map Options




Map Legend


Flown Route
Filed Route
Departure Airport
Arrival Airport
Navaid (VOR, NDB)
Fix

Horizontal Profiles

Position Reports

Time Latitude Longitude Heading Altitude Ground
Speed
30-Nov-20 20:44 33.671610 -117.867755 207 59ft 0kts
30-Nov-20 20:45 33.671610 -117.867755 207 59ft 0kts
30-Nov-20 20:46 33.671610 -117.867755 207 59ft 0kts
30-Nov-20 20:47 33.671610 -117.867755 207 59ft 0kts
30-Nov-20 20:48 33.671610 -117.867755 207 59ft 0kts
30-Nov-20 20:49 33.671610 -117.867755 207 59ft 0kts
30-Nov-20 20:50 33.671610 -117.867755 207 59ft 0kts
30-Nov-20 20:51 33.671610 -117.867755 207 59ft 0kts
30-Nov-20 20:52 33.671610 -117.867755 207 59ft 0kts
30-Nov-20 20:53 33.671610 -117.867755 207 59ft 0kts
30-Nov-20 20:54 33.671610 -117.867755 207 59ft 0kts
30-Nov-20 20:55 33.672424 -117.867952 28 59ft 10kts
30-Nov-20 20:56 33.675045 -117.866498 27 59ft 14kts
30-Nov-20 20:57 33.678614 -117.864233 28 59ft 15kts
30-Nov-20 20:58 33.679983 -117.863651 294 59ft 0kts
30-Nov-20 20:59 33.679982 -117.863651 294 59ft 0kts
30-Nov-20 21:00 33.680006 -117.864235 207 59ft 5kts
30-Nov-20 21:01 33.660579 -117.872573 188 716ft 100kts
30-Nov-20 21:02 33.634430 -117.876251 187 2068ft 96kts
30-Nov-20 21:03 33.606944 -117.879658 169 3241ft 102kts
30-Nov-20 21:04 33.592104 -117.852470 112 4321ft 107kts
30-Nov-20 21:05 33.579027 -117.817631 123 5020ft 132kts
30-Nov-20 21:06 33.552130 -117.782371 134 4996ft 143kts
30-Nov-20 21:07 33.524196 -117.749406 135 4997ft 139kts
30-Nov-20 21:08 33.495790 -117.715863 132 4998ft 139kts
30-Nov-20 21:09 33.467906 -117.682875 133 4999ft 138kts
30-Nov-20 21:10 33.440299 -117.650534 133 4999ft 138kts
30-Nov-20 21:11 33.412663 -117.618200 133 4999ft 139kts
30-Nov-20 21:12 33.385041 -117.585910 133 4999ft 139kts
30-Nov-20 21:13 33.357390 -117.553618 133 4999ft 139kts
30-Nov-20 21:14 33.329718 -117.521330 133 4999ft 139kts
30-Nov-20 21:15 33.302019 -117.489003 133 4999ft 139kts
30-Nov-20 21:16 33.274279 -117.456592 133 4999ft 139kts
30-Nov-20 21:17 33.246550 -117.424303 133 4999ft 139kts
30-Nov-20 21:18 33.211411 -117.405272 158 4999ft 140kts
30-Nov-20 21:19 33.174536 -117.389725 158 4999ft 140kts
30-Nov-20 21:20 33.137624 -117.374190 158 4981ft 141kts
30-Nov-20 21:21 33.100712 -117.358671 158 4982ft 140kts
30-Nov-20 21:22 33.063844 -117.343185 159 4987ft 140kts
30-Nov-20 21:23 33.026962 -117.327706 159 4991ft 140kts
30-Nov-20 21:24 32.990024 -117.312215 159 4996ft 141kts
30-Nov-20 21:25 32.952896 -117.296659 159 5000ft 141kts
30-Nov-20 21:26 32.915841 -117.281141 159 5000ft 141kts
30-Nov-20 21:27 32.878674 -117.265595 159 4998ft 141kts
30-Nov-20 21:28 32.842422 -117.250449 159 4229ft 133kts
30-Nov-20 21:29 32.807648 -117.235926 159 3420ft 132kts
30-Nov-20 21:30 32.782610 -117.209678 110 2995ft 121kts
30-Nov-20 21:31 32.769319 -117.173287 110 2998ft 119kts
30-Nov-20 21:32 32.756136 -117.137249 110 2998ft 117kts
30-Nov-20 21:33 32.743055 -117.101546 110 2999ft 116kts
30-Nov-20 21:34 32.730112 -117.066235 110 2999ft 116kts
30-Nov-20 21:35 32.717190 -117.030986 110 2999ft 116kts
30-Nov-20 21:36 32.723651 -117.000859 30 3002ft 110kts
30-Nov-20 21:37 32.750565 -116.983691 351 3001ft 110kts
30-Nov-20 21:38 32.766464 -117.013381 291 2751ft 112kts
30-Nov-20 21:39 32.779475 -117.049695 299 2059ft 122kts
30-Nov-20 21:40 32.793123 -117.081764 295 1479ft 88kts
30-Nov-20 21:41 32.802823 -117.105716 292 938ft 80kts
30-Nov-20 21:42 32.812350 -117.130051 294 530ft 77kts
30-Nov-20 21:43 32.816202 -117.141193 173 420ft 7kts
30-Nov-20 21:44 32.815900 -117.141175 179 420ft 0kts
30-Nov-20 21:45 32.814818 -117.141955 114 418ft 5kts
30-Nov-20 21:46 32.813515 -117.140273 113 419ft 7kts
30-Nov-20 21:47 32.813610 -117.140063 25 419ft 0kts

Navigation Log

Ident Type
Flight plan parsing failed, navigation log unavailable